Time;durP1;ratioP1;P1;durP2;ratioP2;P2;SDS_P1;SDS_P2;PMS_P1;PMS_P2;Temp;Humidity;BMP_temperature;BMP_pressure;BME280_temperature;BME280_humidity;BME280_pressure;Samples;Min_cycle;Max_cycle;Signal;HPM_P1;HPM_P2
2022/05/28 00:01:06;;;;;;;4.13;3.92;;;;;;;9.03;78.97;101710.72;6090724;23;20025;-74
2022/05/28 00:03:33;;;;;;;5.50;5.30;;;;;;;8.53;79.37;101639.75;6099080;23;20009;-73
2022/05/28 00:06:00;;;;;;;4.43;4.22;;;;;;;8.96;79.32;101711.78;6077271;23;20020;-75
2022/05/28 00:08:27;;;;;;;4.88;4.68;;;;;;;8.95;79.55;101707.47;6107782;23;20076;-73
2022/05/28 00:10:57;;;;;;;4.07;3.88;;;;;;;8.34;79.77;101606.25;6101552;23;20089;-74
2022/05/28 00:13:24;;;;;;;4.55;4.35;;;;;;;8.89;80.17;101686.72;6109651;23;20017;-73
2022/05/28 00:15:51;;;;;;;4.28;4.07;;;;;;;8.59;80.37;101647.44;6097424;23;20140;-73
2022/05/28 00:18:17;;;;;;;4.05;3.85;;;;;;;7.03;79.55;101352.94;6088562;23;20458;-73
2022/05/28 00:20:44;;;;;;;3.80;3.70;;;;;;;9.17;80.31;101678.88;6107762;23;20092;-75
2022/05/28 00:23:13;;;;;;;4.30;4.10;;;;;;;9.26;79.76;101682.97;6077111;23;20498;-75
2022/05/28 00:25:39;;;;;;;6.05;5.75;;;;;;;9.26;79.09;101657.66;6108627;23;20097;-75
2022/05/28 00:28:05;;;;;;;4.00;3.80;;;;;;;8.94;78.18;101601.91;6070805;23;20023;-74
2022/05/28 00:30:32;;;;;;;5.50;5.30;;;;;;;9.04;78.79;101623.41;6124976;23;20017;-74
2022/05/28 00:32:58;;;;;;;4.03;3.83;;;;;;;8.07;77.51;101460.59;6089101;23;20013;-75
2022/05/28 00:35:25;;;;;;;4.43;4.22;;;;;;;9.34;79.09;101673.97;6112672;23;20041;-72
2022/05/28 00:37:51;;;;;;;4.05;3.85;;;;;;;9.18;77.51;101642.16;6086914;23;20014;-75
2022/05/28 00:40:23;;;;;;;4.53;4.32;;;;;;;9.39;76.82;101671.22;6103720;23;20047;-74
2022/05/28 00:42:50;;;;;;;4.15;3.95;;;;;;;9.43;76.92;101664.13;6083170;23;20009;-73
2022/05/28 00:45:17;;;;;;;5.68;5.45;;;;;;;9.49;76.95;101679.63;6106813;23;20427;-74
2022/05/28 00:47:55;;;;;;;4.85;4.55;;;;;;;9.37;76.75;101655.53;6096134;23;20021;-74
2022/05/28 00:50:22;;;;;;;3.88;3.78;;;;;;;9.57;76.75;101682.88;6130672;23;20100;-73
2022/05/28 00:52:48;;;;;;;3.95;3.78;;;;;;;7.81;76.07;101393.44;6101860;23;20008;-75
2022/05/28 00:55:15;;;;;;;4.10;3.90;;;;;;;9.13;76.67;101572.50;6100677;23;20025;-74
2022/05/28 00:57:44;;;;;;;3.80;3.70;;;;;;;9.55;76.90;101634.91;6119577;23;20016;-75
2022/05/28 01:00:14;;;;;;;4.10;3.90;;;;;;;9.40;77.00;101602.16;6130229;23;20021;-75
2022/05/28 01:03:16;;;;;;;3.83;3.72;;;;;;;8.97;76.95;101522.41;6090409;23;20467;-75
2022/05/28 01:06:00;;;;;;;4.22;4.03;;;;;;;9.84;76.18;101660.13;6092232;23;20035;-75
2022/05/28 01:08:49;;;;;;;3.95;3.83;;;;;;;9.87;75.53;101660.03;6087653;23;20013;-75
2022/05/28 01:11:33;;;;;;;4.18;3.97;;;;;;;9.91;75.98;101651.16;6111009;23;20013;-74
2022/05/28 01:14:24;;;;;;;4.10;3.90;;;;;;;9.59;75.73;101597.19;6108048;23;20016;-74
2022/05/28 01:16:53;;;;;;;4.22;4.03;;;;;;;9.93;75.72;101641.47;6110816;23;20016;-75
2022/05/28 01:19:32;;;;;;;4.13;3.92;;;;;;;9.94;75.00;101644.94;6079785;23;20013;-75
2022/05/28 01:22:22;;;;;;;4.20;4.00;;;;;;;9.97;75.37;101644.84;6097036;23;20484;-74
2022/05/28 01:24:52;;;;;;;4.55;4.35;;;;;;;9.96;75.56;101636.13;6093365;23;20029;-74
2022/05/28 01:27:26;;;;;;;4.07;3.88;;;;;;;10.00;76.07;101639.47;6107169;23;20403;-75
2022/05/28 01:29:56;;;;;;;4.50;4.25;;;;;;;9.81;75.74;101615.66;6080794;23;20026;-75
2022/05/28 01:32:26;;;;;;;4.20;4.00;;;;;;;9.77;76.19;101614.91;6072349;23;20032;-73
2022/05/28 01:34:54;;;;;;;3.92;3.78;;;;;;;9.54;76.64;101567.66;6121308;23;20367;-73
2022/05/28 01:37:21;;;;;;;4.60;4.40;;;;;;;9.94;76.37;101622.22;6094230;23;20552;-74
2022/05/28 01:39:49;;;;;;;4.03;3.83;;;;;;;9.34;75.95;101534.25;6082162;23;20022;-74
2022/05/28 01:42:17;;;;;;;4.75;4.55;;;;;;;10.07;76.68;101638.38;6104889;23;20026;-74
2022/05/28 01:44:46;;;;;;;4.70;4.50;;;;;;;9.61;75.94;101552.59;6095015;23;20791;-74
2022/05/28 01:47:15;;;;;;;4.85;4.40;;;;;;;10.10;75.91;101633.03;6114854;23;20029;-74
2022/05/28 01:49:43;;;;;;;4.47;4.28;;;;;;;9.97;75.58;101601.13;6095792;23;20088;-74
2022/05/28 01:52:11;;;;;;;4.20;4.00;;;;;;;9.47;75.38;101526.88;6107871;23;20032;-75
2022/05/28 01:54:43;;;;;;;4.65;4.45;;;;;;;9.99;75.80;101596.66;6115660;18;20014;-86
2022/05/28 01:57:12;;;;;;;4.43;4.22;;;;;;;10.16;74.98;101627.56;6097162;23;20219;-86
2022/05/28 01:59:38;;;;;;;5.25;5.05;;;;;;;10.15;75.13;101635.47;6095885;23;20027;-86
2022/05/28 02:02:09;;;;;;;4.70;4.50;;;;;;;10.13;74.87;101625.03;6068518;23;20328;-86
2022/05/28 02:04:37;;;;;;;4.78;4.57;;;;;;;10.19;75.42;101630.06;6063965;23;20073;-87
2022/05/28 02:07:04;;;;;;;4.18;3.97;;;;;;;9.50;75.34;101513.66;6094520;23;20069;-86
2022/05/28 02:09:37;;;;;;;4.90;4.70;;;;;;;9.69;75.26;101563.66;6116966;23;20005;-85
2022/05/28 02:12:19;;;;;;;4.20;4.00;;;;;;;10.17;75.36;101633.66;6117389;23;20120;-85
2022/05/28 02:14:55;;;;;;;3.80;3.70;;;;;;;10.19;75.31;101616.94;6093155;23;20058;-85
2022/05/28 02:17:43;;;;;;;3.72;3.63;;;;;;;10.21;75.85;101623.91;6097780;23;20094;-84
2022/05/28 02:20:17;;;;;;;3.70;3.60;;;;;;;10.23;75.11;101617.69;6124711;23;20092;-86
2022/05/28 02:23:11;;;;;;;4.00;3.80;;;;;;;9.30;75.25;101464.56;6118450;23;20021;-85
2022/05/28 02:26:05;;;;;;;4.80;4.60;;;;;;;9.91;75.65;101564.63;6109864;23;20019;-86
2022/05/28 02:28:32;;;;;;;4.80;4.60;;;;;;;9.39;75.65;101478.19;6110663;23;20533;-86
2022/05/28 02:31:08;;;;;;;3.80;3.70;;;;;;;10.08;76.09;101592.88;6100516;23;20079;-86
2022/05/28 02:33:35;;;;;;;4.63;4.43;;;;;;;6.52;76.03;101006.59;6116300;23;20487;-87
2022/05/28 02:36:01;;;;;;;3.80;3.70;;;;;;;8.86;76.66;101411.94;6123788;23;20089;-85
2022/05/28 02:38:29;;;;;;;4.72;4.53;;;;;;;8.81;76.52;101419.94;6117584;23;20048;-85
2022/05/28 02:40:56;;;;;;;3.83;3.72;;;;;;;10.06;77.28;101606.94;6122038;23;20445;-85
2022/05/28 02:43:23;;;;;;;4.00;3.80;;;;;;;10.03;77.52;101613.16;6102762;23;20025;-85
2022/05/28 02:45:50;;;;;;;4.50;4.30;;;;;;;9.48;77.60;101521.59;6116485;23;20838;-87
2022/05/28 02:48:17;;;;;;;3.80;3.70;;;;;;;10.11;76.85;101633.88;6120434;23;20080;-86
2022/05/28 02:50:43;;;;;;;4.40;4.20;;;;;;;9.70;77.55;101542.66;6090892;23;20023;-84
2022/05/28 02:53:11;;;;;;;4.10;3.90;;;;;;;9.66;77.12;101524.44;6119859;23;20476;-86
2022/05/28 02:55:38;;;;;;;4.65;4.45;;;;;;;8.77;76.92;101381.72;6102809;23;20032;-86
2022/05/28 02:58:11;;;;;;;;;;;;;;;10.20;76.44;101609.94;6089113;23;20017;-87
2022/05/28 03:00:40;;;;;;;4.70;4.50;;;;;;;8.11;77.11;101302.75;6121240;23;19982;-88
2022/05/28 03:03:06;;;;;;;3.80;3.70;;;;;;;10.06;77.50;101625.31;6116444;23;20052;-85
2022/05/28 03:05:33;;;;;;;4.93;4.72;;;;;;;9.93;78.23;101619.63;6110694;23;20270;-85
2022/05/28 03:07:59;;;;;;;3.90;3.80;;;;;;;9.32;78.58;101544.81;6116902;23;20025;-86
2022/05/28 03:10:26;;;;;;;4.60;4.40;;;;;;;6.18;79.55;101072.75;6116141;23;20018;-85
2022/05/28 03:12:52;;;;;;;4.15;3.95;;;;;;;8.12;81.04;101401.22;6117985;23;20037;-85
2022/05/28 03:15:19;;;;;;;4.10;3.90;;;;;;;9.04;80.42;101544.00;6122585;23;20013;-84
2022/05/28 03:17:46;;;;;;;3.80;3.70;;;;;;;8.83;81.02;101520.22;6091704;23;20037;-85
2022/05/28 03:20:13;;;;;;;5.65;5.00;;;;;;;6.77;81.80;101184.06;6118634;23;20016;-86
2022/05/28 03:22:39;;;;;;;5.97;5.68;;;;;;;9.42;82.76;101621.34;6122837;23;20470;-85
2022/05/28 03:25:06;;;;;;;4.10;3.90;;;;;;;8.79;83.00;101536.91;6118893;23;20081;-84
2022/05/28 03:27:32;;;;;;;4.95;4.75;;;;;;;8.74;83.30;101528.34;6119462;23;20026;-85
2022/05/28 03:29:59;;;;;;;3.80;3.70;;;;;;;8.75;83.51;101537.91;6103443;23;20037;-86
2022/05/28 03:32:25;;;;;;;4.20;4.03;;;;;;;7.83;84.19;101386.41;6090498;23;20037;-87
2022/05/28 03:34:55;;;;;;;3.80;3.70;;;;;;;5.99;83.97;101108.84;6100457;23;20052;-88
2022/05/28 03:37:27;;;;;;;4.60;4.40;;;;;;;6.39;85.09;101154.69;6122419;23;20017;-88
2022/05/28 03:39:55;;;;;;;5.22;5.03;;;;;;;7.11;85.40;101262.22;6120131;23;20308;-88
2022/05/28 03:42:25;;;;;;;3.80;3.70;;;;;;;6.01;85.25;101085.38;6102930;23;20085;-89
2022/05/28 03:44:54;;;;;;;3.70;3.60;;;;;;;2.88;84.83;100598.38;6092916;23;20088;-87
2022/05/28 03:47:21;;;;;;;4.32;4.13;;;;;;;7.48;85.63;101343.88;6125767;23;20044;-87
2022/05/28 03:49:53;;;;;;;3.80;3.70;;;;;;;5.56;85.64;101043.09;6096360;23;20021;-87
2022/05/28 03:52:22;;;;;;;4.90;4.60;;;;;;;4.08;85.76;100808.41;6099712;23;20359;-87
2022/05/28 03:54:53;;;;;;;3.95;3.75;;;;;;;5.89;85.87;101120.38;6095195;23;20081;-87
2022/05/28 03:57:27;;;;;;;4.13;3.92;;;;;;;8.95;85.66;101635.00;6085160;23;20021;-87
2022/05/28 04:00:01;;;;;;;4.35;4.15;;;;;;;3.97;84.54;100744.59;6095981;23;20073;-87
2022/05/28 04:02:32;;;;;;;11.40;10.88;;;;;;;3.87;84.73;100727.56;6051467;23;20046;-87
2022/05/28 04:05:06;;;;;;;4.38;4.18;;;;;;;6.52;86.34;101176.09;6082495;23;20026;-88
2022/05/28 04:07:36;;;;;;;13.20;12.60;;;;;;;4.22;85.74;100790.75;6055288;23;20358;-87
2022/05/28 04:10:09;;;;;;;;;;;;;;;9.26;87.00;101614.88;6092707;23;20053;-87
2022/05/28 04:12:45;;;;;;;16.00;15.23;;;;;;;6.37;85.88;101117.38;6046471;23;20339;-87
2022/05/28 04:15:32;;;;;;;3.65;3.55;;;;;;;8.03;86.53;101376.19;6092795;23;20092;-89
2022/05/28 04:18:13;;;;;;;3.75;3.65;;;;;;;8.34;85.08;101419.72;6024703;23;20017;-87
2022/05/28 04:20:50;;;;;;;12.45;11.85;;;;;;;5.50;84.31;100939.13;6090438;23;20014;-87
2022/05/28 04:23:17;;;;;;;3.70;3.60;;;;;;;5.40;83.59;100859.59;6086493;23;20015;-86
2022/05/28 04:25:45;;;;;;;4.00;3.80;;;;;;;4.35;83.65;100718.53;6086081;23;20387;-89
2022/05/28 04:28:15;;;;;;;3.80;3.70;;;;;;;6.99;84.57;101132.09;6062736;23;20032;-88
2022/05/28 04:30:46;;;;;;;4.10;3.90;;;;;;;9.94;85.35;101558.41;6089845;23;20274;-87
2022/05/28 04:33:17;;;;;;;4.20;4.00;;;;;;;5.09;80.90;100690.50;6087322;23;20540;-87
2022/05/28 04:35:55;;;;;;;4.30;4.10;;;;;;;6.35;76.97;100770.78;6088112;23;20095;-87
2022/05/28 04:38:28;;;;;;;4.28;4.07;;;;;;;7.89;74.36;100923.66;6064105;23;20040;-87
2022/05/28 04:40:57;;;;;;;4.50;4.30;;;;;;;8.07;69.58;100826.25;6098318;23;20041;-87
2022/05/28 04:43:32;;;;;;;5.22;4.82;;;;;;;9.32;66.56;100874.28;6052766;23;20089;-88
2022/05/28 04:46:08;;;;;;;4.70;4.50;;;;;;;11.54;65.01;101279.66;6078894;23;20089;-89
2022/05/28 04:48:45;;;;;;;11.15;10.65;;;;;;;13.80;66.30;101596.16;6043656;23;20186;-88
2022/05/28 04:51:14;;;;;;;4.78;4.57;;;;;;;13.93;64.61;101558.50;6063641;23;20038;-89
2022/05/28 04:53:46;;;;;;;11.20;10.27;;;;;;;12.49;60.96;101270.75;6076076;23;20030;-87
2022/05/28 04:56:14;;;;;;;5.18;4.88;;;;;;;9.28;60.97;100780.19;6082600;23;20017;-88
2022/05/28 04:58:44;;;;;;;5.05;4.85;;;;;;;10.60;61.50;100939.19;6085103;23;20342;-88
2022/05/28 05:01:18;;;;;;;4.90;4.70;;;;;;;12.98;60.31;101310.31;6083198;23;20053;-88
2022/05/28 05:03:53;;;;;;;4.80;4.60;;;;;;;13.45;58.91;101343.91;6089932;23;20029;-88
2022/05/28 05:06:25;;;;;;;5.20;4.67;;;;;;;12.41;57.33;101105.28;6077481;23;20082;-87
2022/05/28 05:09:08;;;;;;;5.13;4.93;;;;;;;13.28;56.82;101204.19;6090982;23;20566;-88
2022/05/28 05:11:45;;;;;;;5.90;5.60;;;;;;;15.17;56.09;101475.94;6114680;23;20011;-88
2022/05/28 05:14:19;;;;;;;4.72;4.53;;;;;;;13.70;57.63;101347.81;6072040;23;20407;-88
2022/05/28 05:16:55;;;;;;;5.30;5.10;;;;;;;10.73;56.13;100792.47;6086944;23;20014;-88
2022/05/28 05:19:29;;;;;;;5.40;5.20;;;;;;;11.39;55.93;100912.50;6079637;23;20030;-88
2022/05/28 05:22:02;;;;;;;6.38;5.88;;;;;;;13.16;55.48;101193.38;6089957;23;20038;-87
2022/05/28 05:24:35;;;;;;;5.55;5.35;;;;;;;12.30;55.35;100866.38;6085723;23;20447;-88
2022/05/28 05:27:08;;;;;;;5.30;5.10;;;;;;;12.25;55.08;100900.00;6081788;23;20026;-89
2022/05/28 05:29:41;;;;;;;5.65;5.35;;;;;;;12.24;53.75;100840.41;6076713;23;20101;-88
2022/05/28 05:32:08;;;;;;;5.43;5.13;;;;;;;14.14;53.24;101120.97;6074420;23;20006;-88
2022/05/28 05:34:39;;;;;;;6.25;5.95;;;;;;;16.90;54.34;101647.22;6105793;18;20034;-72
2022/05/28 05:37:05;;;;;;;5.70;5.40;;;;;;;16.79;54.22;101643.50;6065067;23;20416;-72
2022/05/28 05:39:32;;;;;;;6.32;6.03;;;;;;;17.27;54.72;101641.34;6021087;23;20023;-72
2022/05/28 05:41:58;;;;;;;5.47;5.18;;;;;;;17.53;52.31;101651.06;6056320;23;20104;-71
2022/05/28 05:44:25;;;;;;;5.10;4.90;;;;;;;17.52;52.85;101585.69;6019835;23;20368;-72
2022/05/28 05:46:51;;;;;;;5.25;5.05;;;;;;;17.52;52.22;101649.38;6052985;23;20073;-72
2022/05/28 05:49:18;;;;;;;5.43;5.20;;;;;;;16.81;54.76;101631.88;6012713;23;20015;-72
2022/05/28 05:51:46;;;;;;;5.40;5.20;;;;;;;16.49;56.71;101608.22;6041384;23;20296;-73
2022/05/28 05:54:15;;;;;;;5.10;4.90;;;;;;;17.19;55.06;101633.03;6018801;23;20016;-73
2022/05/28 05:56:42;;;;;;;5.97;5.68;;;;;;;16.72;55.16;101638.59;6034750;23;20449;-72
2022/05/28 05:59:08;;;;;;;5.40;5.20;;;;;;;16.94;55.35;101654.03;5991784;23;20476;-72
2022/05/28 06:01:35;;;;;;;6.38;6.07;;;;;;;16.25;57.73;101588.56;6044391;23;20022;-73
2022/05/28 06:04:01;;;;;;;5.40;5.20;;;;;;;16.97;55.60;101660.09;6019378;23;20038;-72
2022/05/28 06:06:28;;;;;;;5.70;5.47;;;;;;;17.47;54.03;101643.53;6023187;23;20026;-71
2022/05/28 06:08:54;;;;;;;5.20;5.00;;;;;;;17.99;52.55;101607.31;6027215;23;20107;-73
2022/05/28 06:11:21;;;;;;;5.82;5.55;;;;;;;17.40;54.00;101634.28;6045127;23;20354;-71
2022/05/28 06:13:48;;;;;;;5.60;5.20;;;;;;;17.15;53.98;101604.03;6023152;23;20260;-72
2022/05/28 06:16:15;;;;;;;5.53;5.30;;;;;;;17.13;55.57;101603.28;6016691;23;20424;-73
2022/05/28 06:18:42;;;;;;;6.22;5.93;;;;;;;16.62;57.22;101648.09;6020896;23;20431;-71
2022/05/28 06:21:09;;;;;;;5.68;5.20;;;;;;;15.72;59.37;101634.09;6055394;23;20046;-72
2022/05/28 06:23:36;;;;;;;6.97;6.68;;;;;;;15.88;60.21;101657.84;6035483;23;20053;-72
2022/05/28 06:26:05;;;;;;;5.50;5.20;;;;;;;15.72;60.95;101646.44;6031071;23;20420;-72
2022/05/28 06:28:32;;;;;;;6.82;6.53;;;;;;;15.65;60.46;101597.44;6048709;23;20073;-71
2022/05/28 06:31:03;;;;;;;5.30;5.10;;;;;;;16.02;60.95;101653.53;6035410;23;20050;-72
2022/05/28 06:33:29;;;;;;;6.35;6.05;;;;;;;15.46;61.30;101640.03;6052572;23;20384;-72
2022/05/28 06:35:58;;;;;;;5.10;4.90;;;;;;;15.18;62.53;101635.47;6052444;23;20134;-72
2022/05/28 06:38:25;;;;;;;5.20;5.00;;;;;;;15.34;60.75;101668.88;6081716;23;20077;-71
2022/05/28 06:40:52;;;;;;;5.10;4.90;;;;;;;15.28;61.14;101673.66;6052805;23;20067;-72
2022/05/28 06:43:20;;;;;;;5.00;4.80;;;;;;;15.71;59.60;101666.72;6075603;23;20339;-72
2022/05/28 06:45:47;;;;;;;5.00;4.80;;;;;;;15.52;58.31;101660.81;6047736;23;20367;-73
2022/05/28 06:48:14;;;;;;;5.13;4.93;;;;;;;15.54;57.16;101656.31;6048072;23;20495;-70
2022/05/28 06:53:26;;;;;;;5.63;5.32;;;;;;;15.47;54.41;101668.16;6038479;23;20041;-70
2022/05/28 06:55:53;;;;;;;5.20;5.00;;;;;;;15.03;55.66;101597.50;6050074;23;20018;-70
2022/05/28 06:58:19;;;;;;;5.10;4.90;;;;;;;15.20;55.81;101633.56;6049641;23;20373;-71
2022/05/28 07:00:45;;;;;;;5.32;5.07;;;;;;;15.24;56.05;101649.16;6071462;23;20403;-71
2022/05/28 07:03:18;;;;;;;5.25;5.05;;;;;;;15.68;56.32;101666.09;6049598;23;20199;-70
2022/05/28 07:05:44;;;;;;;5.50;5.20;;;;;;;15.88;55.12;101620.78;6077150;23;20116;-71
2022/05/28 07:08:11;;;;;;;5.00;4.80;;;;;;;16.30;54.59;101674.75;6028800;23;20258;-70
2022/05/28 07:10:43;;;;;;;6.50;6.20;;;;;;;15.38;52.68;101494.13;6051882;23;20010;-70
2022/05/28 07:13:10;;;;;;;5.00;4.80;;;;;;;15.23;54.14;101675.69;6046066;23;20034;-70
2022/05/28 07:15:37;;;;;;;6.95;6.65;;;;;;;14.92;55.37;101658.91;6064161;23;20042;-71
2022/05/28 07:18:04;;;;;;;5.20;5.00;;;;;;;15.03;55.40;101663.59;6053297;23;20437;-72
2022/05/28 07:20:31;;;;;;;5.40;5.20;;;;;;;15.32;54.07;101680.47;6077786;23;20408;-71
2022/05/28 07:22:58;;;;;;;4.80;4.60;;;;;;;15.29;54.30;101670.06;6050147;23;20187;-75
2022/05/28 07:25:24;;;;;;;5.28;5.05;;;;;;;15.19;52.95;101671.53;6067806;23;20322;-70
2022/05/28 07:27:51;;;;;;;4.90;4.70;;;;;;;14.58;54.71;101646.69;6028443;23;21282;-70
2022/05/28 07:30:17;;;;;;;4.90;4.70;;;;;;;14.70;55.90;101654.78;6070812;23;20078;-71
2022/05/28 07:32:44;;;;;;;4.80;4.60;;;;;;;14.64;53.14;101636.63;6046520;23;20038;-71
2022/05/28 07:35:11;;;;;;;5.10;4.90;;;;;;;14.72;53.28;101631.78;6072898;23;20025;-71
2022/05/28 07:37:38;;;;;;;5.88;5.57;;;;;;;15.08;53.93;101650.97;6049937;23;20476;-70
2022/05/28 07:40:05;;;;;;;4.72;4.53;;;;;;;15.30;52.86;101651.47;6046008;23;20022;-70
2022/05/28 07:42:31;;;;;;;5.93;5.63;;;;;;;15.58;52.02;101662.28;6028067;23;20043;-70
2022/05/28 07:44:58;;;;;;;4.80;4.60;;;;;;;15.92;50.30;101679.72;6071875;23;20026;-71
2022/05/28 07:47:24;;;;;;;5.47;5.25;;;;;;;15.55;51.74;101642.13;6048572;23;20632;-71
2022/05/28 07:49:50;;;;;;;4.82;4.63;;;;;;;15.93;50.37;101671.66;6076003;23;20026;-71
2022/05/28 07:52:17;;;;;;;6.80;6.50;;;;;;;15.66;51.77;101673.25;6046415;23;20026;-70
2022/05/28 07:54:44;;;;;;;4.80;4.60;;;;;;;16.11;49.75;101672.34;6074772;23;20774;-72
2022/05/28 07:57:10;;;;;;;5.10;4.90;;;;;;;15.62;50.33;101610.88;6036225;23;20019;-70
2022/05/28 07:59:37;;;;;;;6.78;6.47;;;;;;;15.77;50.79;101670.00;6060871;23;20518;-71
2022/05/28 08:02:04;;;;;;;4.95;4.75;;;;;;;15.81;50.42;101672.38;6050350;23;20034;-71
2022/05/28 08:04:31;;;;;;;5.68;5.47;;;;;;;15.89;50.00;101621.63;6044802;23;20022;-71
2022/05/28 08:06:57;;;;;;;6.15;5.85;;;;;;;16.06;50.49;101670.94;6081194;23;20026;-71
2022/05/28 08:09:24;;;;;;;5.35;5.13;;;;;;;16.09;50.65;101674.25;6034299;23;20008;-70
2022/05/28 08:11:52;;;;;;;4.82;4.63;;;;;;;16.35;49.51;101667.38;6071625;23;21187;-71
2022/05/28 08:14:19;;;;;;;4.95;4.75;;;;;;;15.87;47.15;101668.53;6070924;23;20123;-72
2022/05/28 08:16:45;;;;;;;5.30;5.10;;;;;;;15.64;50.17;101653.97;6044561;23;20085;-73
2022/05/28 08:19:12;;;;;;;5.10;4.90;;;;;;;15.70;48.90;101645.69;6052663;23;20025;-72
2022/05/28 08:24:23;;;;;;;4.97;4.78;;;;;;;14.96;47.43;101504.50;6061611;23;20033;-70
2022/05/28 08:26:51;;;;;;;4.78;4.57;;;;;;;15.81;47.62;101677.66;6076127;23;20752;-72
2022/05/28 08:29:22;;;;;;;4.80;4.60;;;;;;;16.30;49.03;101652.72;6077457;23;20010;-74
2022/05/28 08:31:49;;;;;;;4.90;4.70;;;;;;;15.46;49.19;101542.97;6050114;23;20046;-74
2022/05/28 08:34:16;;;;;;;4.85;4.65;;;;;;;15.84;49.46;101666.06;6050345;23;20093;-75
2022/05/28 08:36:42;;;;;;;5.25;5.05;;;;;;;15.89;49.63;101651.59;6037418;23;20014;-73
2022/05/28 08:39:13;;;;;;;5.65;5.45;;;;;;;16.31;49.06;101679.09;6044433;23;20085;-73
2022/05/28 08:41:50;;;;;;;6.20;5.90;;;;;;;16.04;48.68;101673.69;6013044;23;20485;-75
2022/05/28 08:44:25;;;;;;;5.43;5.13;;;;;;;15.71;48.88;101637.63;6048216;23;20248;-73
2022/05/28 08:47:07;;;;;;;4.90;4.70;;;;;;;16.34;46.63;101670.97;5983081;23;20015;-74
2022/05/28 08:49:34;;;;;;;6.25;5.95;;;;;;;15.92;44.71;101571.16;6044659;23;20021;-73
2022/05/28 08:52:08;;;;;;;4.85;4.65;;;;;;;15.80;46.73;101601.88;6047792;23;20026;-74
2022/05/28 08:54:56;;;;;;;6.32;6.03;;;;;;;16.60;45.84;101671.19;5908227;23;20011;-73
2022/05/28 08:57:46;;;;;;;5.20;5.00;;;;;;;17.12;43.38;101672.38;6041702;23;20026;-76
2022/05/28 09:00:20;;;;;;;5.07;4.88;;;;;;;17.20;42.74;101590.50;6024501;23;20090;-75
2022/05/28 09:02:51;;;;;;;5.10;4.90;;;;;;;17.22;41.89;101632.81;6012749;23;20499;-75
2022/05/28 09:05:32;;;;;;;4.90;4.70;;;;;;;16.73;41.12;101684.50;6023549;23;20026;-73
2022/05/28 09:08:01;;;;;;;4.90;4.70;;;;;;;16.82;42.73;101632.72;6044849;23;20082;-75
2022/05/28 09:10:44;;;;;;;6.82;6.00;;;;;;;16.67;41.11;101656.56;6023222;23;20019;-74
2022/05/28 09:13:24;;;;;;;5.10;4.90;;;;;;;16.20;41.64;101625.09;6020791;23;20370;-73
2022/05/28 09:15:51;;;;;;;5.00;4.80;;;;;;;16.81;41.97;101653.09;6039579;23;20333;-75
2022/05/28 09:18:20;;;;;;;5.03;4.82;;;;;;;16.57;43.07;101609.56;6014050;23;20023;-73
2022/05/28 09:20:48;;;;;;;4.90;4.70;;;;;;;16.72;43.62;101658.97;6050916;23;20085;-73
2022/05/28 09:23:14;;;;;;;4.95;4.75;;;;;;;17.06;43.62;101659.47;5990978;23;20040;-74
2022/05/28 09:25:45;;;;;;;7.07;5.85;;;;;;;17.42;42.41;101669.53;6045610;23;20877;-74
2022/05/28 09:28:21;;;;;;;5.10;4.90;;;;;;;17.59;41.93;101646.31;6017598;23;20086;-73
2022/05/28 09:30:53;;;;;;;5.50;5.30;;;;;;;17.53;40.70;101667.00;6012772;23;20168;-74
2022/05/28 09:33:52;;;;;;;5.00;4.80;;;;;;;16.73;40.49;101645.59;6057348;23;20079;-74
2022/05/28 09:36:31;;;;;;;5.05;4.85;;;;;;;16.62;40.35;101679.88;6080498;23;20046;-74
2022/05/28 09:39:07;;;;;;;5.00;4.80;;;;;;;17.37;40.65;101663.66;6046110;23;20022;-73
2022/05/28 09:41:55;;;;;;;6.55;6.25;;;;;;;17.05;37.60;101610.06;6048514;23;20026;-70
2022/05/28 09:44:27;;;;;;;4.85;4.65;;;;;;;17.97;36.74;101665.00;6072725;23;20466;-74
2022/05/28 09:47:04;;;;;;;5.10;4.90;;;;;;;18.18;35.92;101681.31;6062073;23;20096;-75
2022/05/28 09:49:31;;;;;;;6.03;5.72;;;;;;;17.94;36.57;101651.94;6069232;23;20624;-72
2022/05/28 09:52:05;;;;;;;4.80;4.60;;;;;;;17.30;39.31;101651.75;6081930;23;20093;-74
2022/05/28 09:54:35;;;;;;;6.22;5.93;;;;;;;16.74;41.38;101654.41;6037956;23;20485;-74
2022/05/28 09:57:09;;;;;;;4.88;4.68;;;;;;;17.00;41.66;101647.50;6086523;23;20079;-73
2022/05/28 09:59:49;;;;;;;6.22;5.93;;;;;;;17.06;37.71;101670.09;6047269;23;20026;-73
2022/05/28 10:02:33;;;;;;;5.10;4.90;;;;;;;17.32;39.33;101633.94;6074585;23;20089;-73
2022/05/28 10:05:20;;;;;;;5.03;4.82;;;;;;;17.61;38.73;101626.69;6048942;23;20030;-75
2022/05/28 10:07:52;;;;;;;4.80;4.60;;;;;;;17.30;38.65;101622.59;6071362;23;20034;-74
2022/05/28 10:10:28;;;;;;;4.75;4.55;;;;;;;16.90;40.04;101623.34;6065240;23;20018;-74
2022/05/28 10:13:16;;;;;;;4.85;4.65;;;;;;;17.51;39.90;101642.38;6030225;23;20214;-74
2022/05/28 10:15:50;;;;;;;4.90;4.70;;;;;;;18.20;36.75;101636.00;6066365;23;20949;-74
2022/05/28 10:18:20;;;;;;;6.00;5.70;;;;;;;18.03;38.22;101638.03;6049437;23;20595;-74
2022/05/28 10:21:02;;;;;;;5.00;4.80;;;;;;;18.18;36.39;101611.34;6079257;23;20108;-74
2022/05/28 10:23:28;;;;;;;6.15;5.85;;;;;;;18.28;36.77;101646.94;6048611;23;20045;-74
2022/05/28 10:25:54;;;;;;;5.07;4.88;;;;;;;18.23;37.34;101646.44;6075792;23;20385;-74
2022/05/28 10:28:41;;;;;;;5.40;5.10;;;;;;;18.21;35.67;101625.28;6058731;23;20018;-75
2022/05/28 10:31:26;;;;;;;5.10;4.90;;;;;;;18.59;35.18;101613.75;6077621;23;20030;-74
2022/05/28 10:33:52;;;;;;;5.28;4.90;;;;;;;18.32;35.17;101614.75;6049495;23;20105;-74
2022/05/28 10:36:23;;;;;;;5.00;4.80;;;;;;;18.00;36.06;101568.31;6084354;23;20021;-75
2022/05/28 10:38:50;;;;;;;5.10;4.90;;;;;;;18.06;36.66;101602.44;6044998;23;20096;-75
2022/05/28 10:41:22;;;;;;;5.45;5.25;;;;;;;17.69;38.20;101637.63;6077077;23;20091;-75
2022/05/28 10:43:49;;;;;;;5.07;4.88;;;;;;;17.74;39.19;101619.59;6052085;23;20081;-74
2022/05/28 10:46:40;;;;;;;5.00;4.80;;;;;;;17.25;37.89;101625.50;6043662;23;20010;-73
2022/05/28 10:49:33;;;;;;;4.97;4.78;;;;;;;17.63;36.36;101632.72;6081568;23;20025;-76
2022/05/28 10:52:13;;;;;;;5.00;4.80;;;;;;;16.67;35.90;101365.03;6050853;23;20053;-73
2022/05/28 10:55:11;;;;;;;6.15;5.85;;;;;;;18.30;35.78;101626.44;6052431;23;20089;-74
2022/05/28 10:57:56;;;;;;;6.57;6.28;;;;;;;18.08;34.56;101635.03;5961083;23;20010;-73
2022/05/28 11:00:31;;;;;;;5.10;4.90;;;;;;;18.38;36.66;101594.00;6080317;23;20032;-74
2022/05/28 11:03:16;;;;;;;5.10;4.90;;;;;;;18.42;34.46;101638.00;6041289;23;20443;-74
2022/05/28 11:06:05;;;;;;;5.50;5.30;;;;;;;17.90;36.04;101579.59;6024841;23;20033;-74
2022/05/28 11:08:43;;;;;;;5.78;5.47;;;;;;;18.00;33.43;101619.66;6050117;23;20675;-74
2022/05/28 11:11:43;;;;;;;5.22;5.03;;;;;;;19.10;34.15;101624.28;6072262;23;20043;-74
2022/05/28 11:14:41;;;;;;;5.00;4.80;;;;;;;18.52;31.89;101588.56;6045954;23;20046;-73
2022/05/28 11:17:20;;;;;;;4.93;4.72;;;;;;;18.39;31.42;101625.81;6050492;23;20097;-74
2022/05/28 11:19:57;;;;;;;4.90;4.70;;;;;;;18.79;33.33;101593.75;6078816;23;20021;-74
2022/05/28 11:22:42;;;;;;;5.25;5.05;;;;;;;18.81;31.98;101610.44;6046705;23;20097;-74
2022/05/28 11:25:29;;;;;;;5.00;4.80;;;;;;;18.62;32.86;101610.88;6043295;23;20074;-74
2022/05/28 11:28:24;;;;;;;5.10;4.90;;;;;;;18.36;32.22;101623.34;6033755;23;20038;-75
2022/05/28 11:30:56;;;;;;;5.00;4.80;;;;;;;18.15;31.97;101599.13;6046631;23;20471;-73
2022/05/28 11:33:36;;;;;;;5.10;4.87;;;;;;;18.71;32.39;101590.75;6050355;23;20022;-74
2022/05/28 11:36:10;;;;;;;5.10;4.90;;;;;;;19.17;31.90;101576.75;6052422;23;20092;-75
2022/05/28 11:38:41;;;;;;;6.20;5.90;;;;;;;19.42;32.07;101606.84;6020004;23;20400;-73
2022/05/28 11:41:15;;;;;;;5.00;4.70;;;;;;;19.54;31.88;101576.63;6054348;23;20171;-73
2022/05/28 11:44:02;;;;;;;5.20;4.90;;;;;;;19.56;33.35;101590.69;6026326;23;20272;-74
2022/05/28 11:46:37;;;;;;;6.28;5.97;;;;;;;19.18;30.85;101577.59;6050642;23;20143;-74
2022/05/28 11:52:10;;;;;;;5.22;5.03;;;;;;;20.08;31.69;101580.53;6024160;23;20026;-75
2022/05/28 11:54:43;;;;;;;6.20;5.90;;;;;;;19.26;32.67;101583.19;6048862;23;20030;-74
2022/05/28 11:57:36;;;;;;;5.10;4.90;;;;;;;19.32;32.47;101583.63;6046235;23;20050;-74
2022/05/28 12:00:05;;;;;;;;;;;;;;;19.86;32.92;101578.69;6014821;23;20287;-74